createdAt,value
2022-08-24T00:01:14.765Z,97930.69
2022-08-24T00:05:19.056Z,97924.00
2022-08-24T00:09:22.453Z,97923.38
2022-08-24T00:13:29.430Z,97917.50
2022-08-24T00:17:36.147Z,97920.53
2022-08-24T00:21:40.074Z,97904.69
2022-08-24T00:25:43.202Z,97915.06
2022-08-24T00:29:48.193Z,97908.78
2022-08-24T00:33:52.029Z,97907.75
2022-08-24T00:37:56.455Z,97910.19
2022-08-24T00:42:01.013Z,97897.19
2022-08-24T00:46:16.416Z,97904.91
2022-08-24T00:50:24.679Z,97897.19
2022-08-24T00:54:30.963Z,97892.31
2022-08-24T00:58:39.582Z,97906.53
2022-08-24T01:03:04.755Z,97895.19
2022-08-24T01:07:08.682Z,97898.44
2022-08-24T01:11:15.385Z,97905.75
2022-08-24T01:15:20.975Z,97896.41
2022-08-24T01:19:33.997Z,97904.50
2022-08-24T01:23:42.078Z,97905.72
2022-08-24T01:27:46.664Z,97900.06
2022-08-24T01:31:50.777Z,97910.00
2022-08-24T01:35:59.956Z,97909.75
2022-08-24T01:40:08.506Z,97896.38
2022-08-24T01:44:12.788Z,97901.63
2022-08-24T01:48:22.679Z,97905.50
2022-08-24T01:52:43.444Z,97903.66
2022-08-24T01:56:53.673Z,97908.06
2022-08-24T02:00:57.740Z,97905.00
2022-08-24T02:05:01.637Z,97908.84
2022-08-24T02:09:06.228Z,97915.72
2022-08-24T02:13:11.024Z,97918.94
2022-08-24T02:17:14.829Z,97920.31
2022-08-24T02:21:18.759Z,97917.25
2022-08-24T02:25:22.467Z,97923.16
2022-08-24T02:29:27.963Z,97924.56
2022-08-24T02:33:31.631Z,97920.09
2022-08-24T02:37:34.957Z,97923.72
2022-08-24T02:41:46.790Z,97922.94
2022-08-24T02:45:52.322Z,97923.94
2022-08-24T02:49:55.557Z,97935.31
2022-08-24T02:54:00.138Z,97929.03
2022-08-24T02:58:04.001Z,97928.22
2022-08-24T03:02:09.088Z,97924.22
2022-08-24T03:06:12.806Z,97916.13
2022-08-24T03:10:17.361Z,97915.28
2022-08-24T03:14:21.248Z,97921.41
2022-08-24T03:18:27.922Z,97925.25
2022-08-24T03:22:31.049Z,97927.50
2022-08-24T03:26:34.798Z,97932.38
2022-08-24T03:30:39.961Z,97921.44
2022-08-24T03:34:47.109Z,97921.63
2022-08-24T03:38:50.725Z,97927.34
2022-08-24T03:42:55.509Z,97930.44
2022-08-24T03:47:00.090Z,97931.03
2022-08-24T03:51:05.332Z,97933.25
2022-08-24T03:55:10.738Z,97937.53
2022-08-24T03:59:17.727Z,97928.75
2022-08-24T04:03:23.444Z,97942.00
2022-08-24T04:07:30.320Z,97940.97
2022-08-24T04:11:39.460Z,97941.81
2022-08-24T04:15:44.977Z,97950.09
2022-08-24T04:19:59.100Z,97951.56
2022-08-24T04:24:04.890Z,97954.97
2022-08-24T04:28:08.495Z,97952.16
2022-08-24T04:32:12.156Z,97964.53
2022-08-24T04:36:15.678Z,97959.66
2022-08-24T04:40:20.958Z,97966.38
2022-08-24T04:44:24.062Z,97970.25
2022-08-24T04:48:27.612Z,97975.72
2022-08-24T04:52:31.235Z,97973.31
2022-08-24T04:56:36.765Z,97984.06
2022-08-24T05:00:40.691Z,97978.38
2022-08-24T05:04:44.491Z,97967.81
2022-08-24T05:08:48.707Z,97980.63
2022-08-24T05:12:53.716Z,97977.78
2022-08-24T05:16:57.262Z,97979.41
2022-08-24T05:21:00.836Z,97980.84
2022-08-24T05:25:04.550Z,97981.28
2022-08-24T05:29:09.059Z,97974.38
2022-08-24T05:33:13.440Z,97975.97
2022-08-24T05:37:16.889Z,97973.75
2022-08-24T05:41:21.617Z,97979.00
2022-08-24T05:45:26.139Z,97987.34
2022-08-24T05:49:30.035Z,97987.50
2022-08-24T05:53:34.398Z,97987.88
2022-08-24T05:57:38.286Z,97987.03
2022-08-24T06:01:45.584Z,97979.63
2022-08-24T06:05:49.395Z,97982.97
2022-08-24T06:09:54.210Z,97983.25
2022-08-24T06:14:01.838Z,97974.34
2022-08-24T06:18:07.621Z,97973.91
2022-08-24T06:22:12.192Z,97973.88
2022-08-24T06:26:34.018Z,97967.16
2022-08-24T06:30:37.719Z,97962.47
2022-08-24T06:34:42.778Z,97959.66
2022-08-24T06:38:46.865Z,97949.19
2022-08-24T06:42:50.129Z,97944.09
2022-08-24T06:46:53.882Z,97943.16
2022-08-24T06:51:00.138Z,97950.53
2022-08-24T06:55:03.836Z,97943.59
2022-08-24T06:59:08.935Z,97953.91
2022-08-24T07:03:12.688Z,97958.91
2022-08-24T07:07:18.349Z,97959.41
2022-08-24T07:11:22.580Z,97962.44
2022-08-24T07:15:26.740Z,97954.63
2022-08-24T07:19:30.947Z,97960.09
2022-08-24T07:23:41.937Z,97952.25
2022-08-24T07:27:45.934Z,97959.31
2022-08-24T07:31:50.105Z,97959.84
2022-08-24T07:35:56.257Z,97966.34
2022-08-24T07:40:01.585Z,97964.63
2022-08-24T07:44:05.161Z,97956.94
2022-08-24T07:48:10.592Z,97958.72
2022-08-24T07:52:17.403Z,97964.78
2022-08-24T07:56:22.824Z,97968.00
2022-08-24T08:00:27.649Z,97968.13
2022-08-24T08:04:32.730Z,97979.53
2022-08-24T08:08:39.513Z,97980.03
2022-08-24T08:12:44.207Z,97982.25
2022-08-24T08:16:48.030Z,97979.28
2022-08-24T08:20:51.867Z,97980.34
2022-08-24T08:24:54.436Z,97976.97
2022-08-24T08:28:58.921Z,97976.53
2022-08-24T08:33:03.342Z,97973.41
2022-08-24T08:37:07.949Z,97965.41
2022-08-24T08:41:43.027Z,97974.53
2022-08-24T08:46:09.219Z,97975.03
2022-08-24T08:50:18.517Z,97972.31
2022-08-24T08:54:34.112Z,97975.53
2022-08-24T08:58:59.417Z,97976.59
2022-08-24T09:03:18.920Z,97983.06
2022-08-24T09:07:32.763Z,97983.09
2022-08-24T09:11:50.478Z,97990.06
2022-08-24T09:16:10.620Z,97984.16
2022-08-24T09:20:26.867Z,97979.31
2022-08-24T09:24:53.267Z,97982.59
2022-08-24T09:29:11.306Z,97978.28
2022-08-24T09:33:22.398Z,97967.53
2022-08-24T09:37:55.756Z,97973.44
2022-08-24T09:42:44.005Z,97961.09
2022-08-24T09:47:23.652Z,97965.41
2022-08-24T09:52:03.399Z,97956.56
2022-08-24T09:56:16.258Z,97949.00
2022-08-24T10:00:26.050Z,97956.22
2022-08-24T10:04:38.663Z,97955.06
2022-08-24T10:08:56.694Z,97957.41
2022-08-24T10:13:15.462Z,97948.09
2022-08-24T10:17:23.601Z,97947.84
2022-08-24T10:21:42.095Z,97940.25
2022-08-24T10:25:57.767Z,97943.31
2022-08-24T10:30:27.826Z,97941.00
2022-08-24T10:34:49.101Z,97931.78
2022-08-24T10:39:19.285Z,97931.19
2022-08-24T10:43:48.980Z,97930.97
2022-08-24T10:48:18.458Z,97931.78
2022-08-24T10:53:18.893Z,97938.38
2022-08-24T10:57:32.482Z,97929.19
2022-08-24T11:01:38.114Z,97927.28
2022-08-24T11:05:49.714Z,97923.00
2022-08-24T11:09:56.434Z,97928.22
2022-08-24T11:14:05.033Z,97926.00
2022-08-24T11:18:12.860Z,97927.25
2022-08-24T11:22:41.614Z,97925.69
2022-08-24T11:30:49.836Z,97914.53
2022-08-24T11:34:53.000Z,97905.28
2022-08-24T11:43:36.073Z,97926.78
2022-08-24T11:48:00.254Z,97924.34
2022-08-24T11:52:13.061Z,97919.22
2022-08-24T11:56:25.522Z,97918.38
2022-08-24T12:00:46.023Z,97924.06
2022-08-24T12:04:59.490Z,97922.78
2022-08-24T12:09:13.337Z,97914.41
2022-08-24T12:13:31.950Z,97914.72
2022-08-24T12:17:42.219Z,97910.28
2022-08-24T12:21:51.098Z,97910.88
2022-08-24T12:26:04.577Z,97909.63
2022-08-24T12:30:14.381Z,97909.97
2022-08-24T12:34:27.684Z,97903.94
2022-08-24T12:38:36.036Z,97898.25
2022-08-24T12:42:51.793Z,97895.34
2022-08-24T12:46:57.210Z,97895.53
2022-08-24T12:51:18.969Z,97894.16
2022-08-24T12:55:52.618Z,97891.16
2022-08-24T12:59:58.299Z,97882.97
2022-08-24T13:04:32.521Z,97887.09
2022-08-24T13:08:41.268Z,97880.22
2022-08-24T13:13:14.717Z,97880.34
2022-08-24T13:17:20.545Z,97874.03
2022-08-24T13:21:45.220Z,97882.69
2022-08-24T13:25:58.274Z,97873.03
2022-08-24T13:30:09.165Z,97881.56
2022-08-24T13:34:40.659Z,97874.03
2022-08-24T13:39:00.050Z,97868.66
2022-08-24T13:43:17.817Z,97867.03
2022-08-24T13:47:26.435Z,97873.22
2022-08-24T13:51:43.916Z,97874.53
2022-08-24T13:55:52.692Z,97865.97
2022-08-24T14:00:32.850Z,97864.88
2022-08-24T14:04:47.799Z,97866.41
2022-08-24T14:09:01.178Z,97861.50
2022-08-24T14:13:16.606Z,97856.94
2022-08-24T14:17:53.824Z,97852.38
2022-08-24T14:22:08.031Z,97853.69
2022-08-24T14:26:52.754Z,97858.78
2022-08-24T14:31:21.901Z,97850.72
2022-08-24T14:35:39.871Z,97855.47
2022-08-24T14:39:53.787Z,97849.66
2022-08-24T14:44:47.852Z,97848.09
2022-08-24T14:49:04.407Z,97844.88
2022-08-24T14:53:34.662Z,97834.97
2022-08-24T14:58:03.108Z,97847.19
2022-08-24T15:02:39.414Z,97845.59
2022-08-24T15:06:48.390Z,97844.94
2022-08-24T15:10:59.370Z,97831.59
2022-08-24T15:15:11.017Z,97822.03
2022-08-24T15:19:27.466Z,97831.25
2022-08-24T15:23:53.454Z,97827.09
2022-08-24T15:28:01.472Z,97832.06
2022-08-24T15:32:09.144Z,97827.84
2022-08-24T15:36:16.053Z,97836.22
2022-08-24T15:40:27.436Z,97825.53
2022-08-24T15:44:33.721Z,97831.97
2022-08-24T15:48:38.102Z,97827.00
2022-08-24T15:52:46.368Z,97831.28
2022-08-24T15:56:52.044Z,97837.09
2022-08-24T16:01:16.074Z,97831.28
2022-08-24T16:05:21.979Z,97826.44
2022-08-24T16:09:38.210Z,97824.81
2022-08-24T16:13:44.606Z,97827.50
2022-08-24T16:17:51.827Z,97817.84
2022-08-24T16:22:01.081Z,97820.22
2022-08-24T16:26:33.389Z,97819.88
2022-08-24T16:30:49.364Z,97813.94
2022-08-24T16:34:58.163Z,97809.88
2022-08-24T16:39:01.561Z,97812.84
2022-08-24T16:43:05.410Z,97817.16
2022-08-24T16:47:09.166Z,97808.06
2022-08-24T16:51:14.217Z,97811.31
2022-08-24T16:55:17.562Z,97815.66
2022-08-24T16:59:26.996Z,97823.19
2022-08-24T17:03:31.078Z,97825.38
2022-08-24T17:07:36.176Z,97820.28
2022-08-24T17:11:39.269Z,97818.47
2022-08-24T17:15:43.029Z,97812.25
2022-08-24T17:19:47.652Z,97818.97
2022-08-24T17:23:53.000Z,97819.47
2022-08-24T17:32:00.968Z,97825.19
2022-08-24T17:36:07.554Z,97829.06
2022-08-24T17:40:23.913Z,97837.72
2022-08-24T17:44:30.868Z,97834.53
2022-08-24T17:48:34.909Z,97850.59
2022-08-24T17:52:38.925Z,97848.66
2022-08-24T17:56:45.739Z,97857.38
2022-08-24T18:00:49.264Z,97851.66
2022-08-24T18:04:52.894Z,97853.66
2022-08-24T18:08:58.430Z,97858.28
2022-08-24T18:13:04.541Z,97859.75
2022-08-24T18:17:11.923Z,97869.66
2022-08-24T18:21:15.543Z,97871.84
2022-08-24T18:25:20.777Z,97880.41
2022-08-24T18:29:25.520Z,97879.41
2022-08-24T18:33:29.238Z,97880.81
2022-08-24T18:37:32.484Z,97881.75
2022-08-24T18:41:41.389Z,97887.56
2022-08-24T18:45:46.047Z,97890.66
2022-08-24T18:49:49.356Z,97893.28
2022-08-24T18:53:59.219Z,97889.56
2022-08-24T18:58:02.942Z,97889.31
2022-08-24T19:02:29.646Z,97891.72
2022-08-24T19:06:32.893Z,97885.00
2022-08-24T19:10:38.671Z,97886.56
2022-08-24T19:14:46.385Z,97889.75
2022-08-24T19:18:52.832Z,97885.56
2022-08-24T19:22:57.965Z,97887.72
2022-08-24T19:27:02.444Z,97891.53
2022-08-24T19:31:10.378Z,97885.25
2022-08-24T19:35:16.485Z,97889.38
2022-08-24T19:39:22.830Z,97895.13
2022-08-24T19:43:35.707Z,97890.28
2022-08-24T19:47:39.322Z,97898.66
2022-08-24T19:51:44.375Z,97913.41
2022-08-24T19:55:50.342Z,97908.97
2022-08-24T19:59:55.062Z,97912.56
2022-08-24T20:03:59.026Z,97913.66
2022-08-24T20:08:04.993Z,97913.91
2022-08-24T20:12:09.691Z,97914.41
2022-08-24T20:16:17.062Z,97923.22
2022-08-24T20:20:22.956Z,97926.31
2022-08-24T20:24:27.707Z,97930.00
2022-08-24T20:28:38.214Z,97939.56
2022-08-24T20:32:42.295Z,97930.00
2022-08-24T20:36:51.265Z,97933.47
2022-08-24T20:40:56.097Z,97926.53
2022-08-24T20:45:00.688Z,97925.13
2022-08-24T20:49:04.539Z,97918.66
2022-08-24T20:53:09.865Z,97923.81
2022-08-24T21:01:44.407Z,97916.22
2022-08-24T21:05:48.678Z,97921.53
2022-08-24T21:09:52.405Z,97917.56
2022-08-24T21:13:57.820Z,97917.38
2022-08-24T21:18:02.203Z,97917.66
2022-08-24T21:22:06.177Z,97906.88
2022-08-24T21:26:12.065Z,97905.06
2022-08-24T21:30:21.661Z,97904.94
2022-08-24T21:34:43.310Z,97900.91
2022-08-24T21:38:46.901Z,97897.94
2022-08-24T21:42:50.938Z,97902.44
2022-08-24T21:46:56.981Z,97892.94
2022-08-24T21:51:00.772Z,97893.97
2022-08-24T21:55:04.429Z,97879.78
2022-08-24T21:59:08.514Z,97876.97
2022-08-24T22:03:13.990Z,97887.16
2022-08-24T22:07:17.361Z,97892.06
2022-08-24T22:11:25.123Z,97886.38
2022-08-24T22:15:28.737Z,97888.41
2022-08-24T22:19:33.792Z,97895.72
2022-08-24T22:23:39.065Z,97887.59
2022-08-24T22:27:42.963Z,97892.53
2022-08-24T22:31:47.437Z,97902.69
2022-08-24T22:35:52.786Z,97894.59
2022-08-24T22:39:56.246Z,97892.16
2022-08-24T22:44:17.463Z,97881.84
2022-08-24T22:48:20.528Z,97884.31
2022-08-24T22:52:25.562Z,97888.00
2022-08-24T22:56:31.023Z,97885.38
2022-08-24T23:00:36.066Z,97887.03
2022-08-24T23:04:41.470Z,97870.97
2022-08-24T23:08:46.675Z,97870.81
2022-08-24T23:12:50.326Z,97865.94
2022-08-24T23:16:54.106Z,97858.22
2022-08-24T23:20:56.978Z,97859.81
2022-08-24T23:25:01.922Z,97853.53
2022-08-24T23:29:05.705Z,97851.69
2022-08-24T23:33:09.879Z,97849.06
2022-08-24T23:37:13.620Z,97841.56
2022-08-24T23:41:21.123Z,97850.47
2022-08-24T23:45:28.353Z,97845.59
2022-08-24T23:49:34.371Z,97835.84
2022-08-24T23:53:38.772Z,97835.03
2022-08-24T23:57:48.147Z,97828.94
